createdAt,value
2023-03-20T00:00:26.670Z,9.34
2023-03-20T00:03:13.407Z,9.27
2023-03-20T00:05:59.297Z,9.12
2023-03-20T00:08:46.194Z,9.24
2023-03-20T00:11:37.205Z,9.16
2023-03-20T00:14:24.830Z,9.22
2023-03-20T00:17:18.237Z,9.24
2023-03-20T00:20:04.650Z,9.18
2023-03-20T00:22:51.266Z,9.21
2023-03-20T00:25:37.948Z,9.07
2023-03-20T00:28:50.321Z,9.07
2023-03-20T00:31:38.398Z,9.09
2023-03-20T00:34:27.376Z,9.03
2023-03-20T00:37:13.599Z,9.05
2023-03-20T00:39:59.736Z,9.05
2023-03-20T00:42:49.237Z,9.02
2023-03-20T00:45:36.323Z,8.94
2023-03-20T00:48:22.548Z,8.80
2023-03-20T00:51:09.702Z,8.85
2023-03-20T00:53:56.016Z,8.81
2023-03-20T00:56:55.086Z,8.70
2023-03-20T00:59:53.592Z,8.30
2023-03-20T01:02:39.757Z,8.67
2023-03-20T01:05:27.470Z,8.62
2023-03-20T01:08:22.501Z,8.54
2023-03-20T01:11:10.363Z,8.57
2023-03-20T01:13:56.288Z,8.51
2023-03-20T01:16:42.942Z,8.50
2023-03-20T01:19:29.357Z,8.38
2023-03-20T01:22:15.726Z,8.48
2023-03-20T01:25:02.707Z,8.50
2023-03-20T01:27:53.777Z,8.44
2023-03-20T01:30:39.973Z,8.43
2023-03-20T01:33:26.663Z,8.40
2023-03-20T01:36:16.130Z,8.37
2023-03-20T01:39:02.564Z,8.32
2023-03-20T01:41:49.050Z,8.24
2023-03-20T01:44:36.546Z,8.27
2023-03-20T01:47:26.116Z,8.19
2023-03-20T01:50:26.592Z,8.21
2023-03-20T01:53:34.531Z,8.08
2023-03-20T01:56:20.991Z,8.20
2023-03-20T01:59:18.609Z,8.16
2023-03-20T02:02:05.898Z,8.01
2023-03-20T02:04:55.658Z,8.08
2023-03-20T02:07:41.813Z,8.03
2023-03-20T02:10:29.508Z,8.01
2023-03-20T02:13:33.007Z,7.93
2023-03-20T02:16:20.138Z,7.87
2023-03-20T02:20:04.264Z,7.85
2023-03-20T02:23:26.071Z,7.79
2023-03-20T02:26:48.216Z,7.84
2023-03-20T02:29:43.102Z,7.88
2023-03-20T02:33:07.256Z,7.85
2023-03-20T02:36:24.509Z,7.84
2023-03-20T02:39:25.904Z,7.75
2023-03-20T02:42:18.772Z,7.79
2023-03-20T02:45:07.855Z,7.82
2023-03-20T02:48:20.532Z,7.76
2023-03-20T02:51:22.491Z,7.70
2023-03-20T02:54:21.533Z,7.69
2023-03-20T02:57:20.773Z,7.60
2023-03-20T03:00:11.906Z,7.68
2023-03-20T03:03:20.994Z,7.63
2023-03-20T03:06:23.933Z,7.58
2023-03-20T03:09:12.194Z,7.53
2023-03-20T03:12:05.572Z,7.60
2023-03-20T03:14:54.885Z,7.56
2023-03-20T03:17:43.289Z,7.50
2023-03-20T03:20:37.768Z,7.50
2023-03-20T03:23:29.569Z,7.59
2023-03-20T03:26:22.796Z,7.60
2023-03-20T03:29:15.871Z,7.58
2023-03-20T03:32:03.622Z,7.58
2023-03-20T03:34:50.279Z,7.57
2023-03-20T03:38:02.085Z,7.54
2023-03-20T03:40:58.824Z,7.55
2023-03-20T03:43:53.676Z,7.46
2023-03-20T03:46:58.232Z,7.32
2023-03-20T03:49:49.553Z,7.44
2023-03-20T03:52:36.678Z,7.47
2023-03-20T03:55:25.397Z,7.47
2023-03-20T03:58:43.239Z,7.41
2023-03-20T04:01:32.497Z,7.41
2023-03-20T04:04:20.567Z,7.39
2023-03-20T04:07:06.864Z,7.41
2023-03-20T04:09:52.591Z,7.42
2023-03-20T04:12:40.852Z,7.38
2023-03-20T04:15:29.369Z,7.41
2023-03-20T04:18:17.335Z,7.44
2023-03-20T04:21:05.303Z,7.28
2023-03-20T04:23:51.991Z,7.40
2023-03-20T04:26:40.535Z,7.35
2023-03-20T04:29:26.925Z,7.23
2023-03-20T04:32:32.989Z,7.28
2023-03-20T04:35:29.396Z,7.27
2023-03-20T04:38:18.396Z,7.22
2023-03-20T04:41:05.636Z,7.23
2023-03-20T04:43:51.976Z,7.23
2023-03-20T04:46:37.858Z,7.13
2023-03-20T04:49:29.569Z,7.20
2023-03-20T04:52:15.818Z,7.22
2023-03-20T04:55:03.676Z,7.22
2023-03-20T04:57:50.340Z,7.10
2023-03-20T05:00:36.321Z,7.22
2023-03-20T05:03:24.057Z,7.09
2023-03-20T05:06:10.694Z,7.22
2023-03-20T05:09:00.931Z,7.21
2023-03-20T05:11:49.370Z,7.19
2023-03-20T05:14:54.937Z,7.17
2023-03-20T05:17:56.696Z,7.19
2023-03-20T05:21:00.083Z,7.18
2023-03-20T05:24:07.528Z,7.19
2023-03-20T05:27:07.875Z,7.18
2023-03-20T05:30:23.182Z,7.23
2023-03-20T05:33:47.382Z,7.26
2023-03-20T05:36:44.995Z,7.29
2023-03-20T05:39:43.642Z,7.29
2023-03-20T05:42:58.852Z,7.28
2023-03-20T05:45:53.845Z,7.32
2023-03-20T05:48:49.408Z,7.32
2023-03-20T05:51:48.782Z,7.38
2023-03-20T05:54:47.571Z,7.42
2023-03-20T05:57:56.766Z,7.50
2023-03-20T06:01:01.146Z,7.48
2023-03-20T06:04:14.727Z,7.57
2023-03-20T06:07:29.799Z,7.61
2023-03-20T06:10:21.119Z,7.66
2023-03-20T06:13:08.859Z,7.72
2023-03-20T06:15:54.480Z,7.73
2023-03-20T06:18:41.938Z,7.76
2023-03-20T06:21:28.316Z,7.79
2023-03-20T06:24:15.035Z,7.84
2023-03-20T06:27:01.764Z,7.95
2023-03-20T06:29:48.037Z,7.99
2023-03-20T06:32:44.369Z,8.04
2023-03-20T06:35:31.671Z,8.11
2023-03-20T06:38:17.794Z,8.21
2023-03-20T06:41:03.903Z,8.20
2023-03-20T06:43:51.150Z,8.37
2023-03-20T06:46:39.094Z,8.51
2023-03-20T06:49:25.801Z,8.60
2023-03-20T06:52:17.317Z,8.66
2023-03-20T06:55:08.381Z,8.76
2023-03-20T06:57:54.074Z,8.86
2023-03-20T07:00:40.057Z,8.91
2023-03-20T07:03:28.541Z,8.94
2023-03-20T07:06:18.929Z,9.13
2023-03-20T07:09:05.602Z,9.19
2023-03-20T07:11:51.622Z,9.31
2023-03-20T07:14:37.436Z,9.39
2023-03-20T07:17:27.728Z,9.41
2023-03-20T07:20:14.302Z,9.41
2023-03-20T07:23:00.499Z,9.59
2023-03-20T07:25:49.895Z,9.73
2023-03-20T07:28:38.046Z,9.83
2023-03-20T07:31:32.512Z,9.84
2023-03-20T07:34:31.436Z,10.05
2023-03-20T07:37:19.638Z,10.15
2023-03-20T07:40:16.952Z,10.18
2023-03-20T07:43:29.145Z,10.33
2023-03-20T07:46:44.576Z,10.45
2023-03-20T07:49:30.867Z,10.57
2023-03-20T07:52:17.287Z,10.69
2023-03-20T07:55:03.313Z,10.82
2023-03-20T07:57:49.954Z,10.99
2023-03-20T08:00:37.385Z,11.10
2023-03-20T08:03:23.363Z,11.20
2023-03-20T08:06:10.110Z,11.36
2023-03-20T08:08:56.547Z,11.49
2023-03-20T08:11:42.794Z,11.59
2023-03-20T08:14:29.197Z,11.65
2023-03-20T08:17:18.017Z,11.81
2023-03-20T08:20:07.421Z,12.02
2023-03-20T08:22:53.462Z,12.09
2023-03-20T08:25:39.414Z,12.16
2023-03-20T08:28:44.115Z,12.29
2023-03-20T08:31:32.001Z,12.54
2023-03-20T08:34:18.109Z,12.63
2023-03-20T08:37:05.207Z,12.87
2023-03-20T08:39:51.316Z,12.88
2023-03-20T08:42:37.303Z,13.13
2023-03-20T08:45:26.237Z,13.18
2023-03-20T08:48:12.050Z,13.49
2023-03-20T08:50:58.036Z,13.46
2023-03-20T08:53:43.811Z,13.67
2023-03-20T08:56:29.713Z,13.87
2023-03-20T08:59:15.497Z,13.90
2023-03-20T09:02:01.513Z,14.10
2023-03-20T09:04:47.283Z,14.16
2023-03-20T09:07:33.147Z,14.34
2023-03-20T09:10:19.003Z,14.44
2023-03-20T09:13:23.412Z,14.48
2023-03-20T09:16:12.551Z,14.60
2023-03-20T09:18:59.813Z,14.65
2023-03-20T09:21:46.329Z,14.75
2023-03-20T09:24:33.069Z,14.78
2023-03-20T09:27:19.313Z,14.93
2023-03-20T09:30:09.399Z,14.80
2023-03-20T09:32:55.997Z,14.97
2023-03-20T09:35:43.641Z,15.06
2023-03-20T09:38:29.584Z,15.19
2023-03-20T09:41:26.139Z,15.21
2023-03-20T09:44:29.300Z,15.37
2023-03-20T09:47:28.074Z,15.49
2023-03-20T09:50:37.105Z,15.54
2023-03-20T09:53:37.077Z,15.62
2023-03-20T09:56:27.147Z,15.81
2023-03-20T09:59:15.541Z,15.67
2023-03-20T10:02:08.001Z,15.73
2023-03-20T10:04:55.016Z,15.91
2023-03-20T10:07:41.026Z,15.99
2023-03-20T10:10:48.031Z,15.91
2023-03-20T10:13:53.939Z,16.15
2023-03-20T10:17:05.276Z,16.31
2023-03-20T10:19:59.326Z,16.49
2023-03-20T10:22:48.776Z,16.52
2023-03-20T10:25:39.435Z,16.50
2023-03-20T10:28:36.789Z,16.65
2023-03-20T10:31:45.799Z,16.67
2023-03-20T10:35:13.398Z,16.72
2023-03-20T10:38:22.623Z,16.83
2023-03-20T10:41:15.323Z,17.01
2023-03-20T10:44:02.400Z,17.19
2023-03-20T10:46:52.996Z,17.28
2023-03-20T10:49:55.419Z,17.28
2023-03-20T10:52:41.853Z,17.41
2023-03-20T10:55:35.659Z,17.56
2023-03-20T10:58:24.208Z,17.65
2023-03-20T11:01:10.128Z,17.74
2023-03-20T11:03:56.537Z,17.89
2023-03-20T11:06:49.991Z,17.96
2023-03-20T11:09:36.417Z,18.01
2023-03-20T11:12:22.329Z,18.19
2023-03-20T11:15:27.045Z,18.30
2023-03-20T11:18:16.484Z,18.36
2023-03-20T11:21:03.702Z,18.49
2023-03-20T11:23:50.520Z,18.52
2023-03-20T11:26:38.812Z,18.65
2023-03-20T11:29:30.398Z,18.67
2023-03-20T11:32:27.160Z,18.64
2023-03-20T11:35:19.437Z,18.83
2023-03-20T11:38:17.707Z,18.79
2023-03-20T11:41:05.396Z,18.87
2023-03-20T11:43:51.333Z,18.92
2023-03-20T11:46:37.540Z,18.87
2023-03-20T11:49:30.368Z,18.91
2023-03-20T11:52:21.970Z,18.89
2023-03-20T11:55:24.969Z,18.96
2023-03-20T11:58:15.514Z,19.06
2023-03-20T12:01:02.276Z,19.16
2023-03-20T12:04:11.381Z,19.12
2023-03-20T12:07:05.100Z,19.47
2023-03-20T12:09:53.249Z,19.51
2023-03-20T12:12:47.791Z,19.51
2023-03-20T12:15:37.073Z,19.58
2023-03-20T12:18:27.142Z,19.57
2023-03-20T12:21:21.122Z,19.47
2023-03-20T12:24:28.454Z,19.65
2023-03-20T12:27:23.372Z,19.62
2023-03-20T12:30:15.753Z,19.71
2023-03-20T12:33:10.529Z,19.76
2023-03-20T12:35:58.493Z,19.85
2023-03-20T12:38:46.046Z,19.95
2023-03-20T12:42:04.763Z,19.93
2023-03-20T12:45:12.493Z,20.12
2023-03-20T12:48:19.824Z,20.31
2023-03-20T12:51:24.426Z,20.25
2023-03-20T12:54:22.475Z,20.39
2023-03-20T12:57:28.666Z,20.57
2023-03-20T13:00:32.163Z,20.41
2023-03-20T13:03:28.426Z,20.76
2023-03-20T13:06:21.562Z,20.78
2023-03-20T13:09:20.048Z,20.82
2023-03-20T13:12:35.591Z,20.95
2023-03-20T13:15:42.863Z,21.17
2023-03-20T13:18:49.168Z,21.20
2023-03-20T13:21:43.623Z,21.33
2023-03-20T13:24:33.829Z,21.55
2023-03-20T13:27:34.386Z,21.55
2023-03-20T13:30:50.427Z,21.63
2023-03-20T13:34:12.144Z,21.70
2023-03-20T13:37:19.905Z,21.81
2023-03-20T13:40:39.486Z,21.78
2023-03-20T13:43:35.996Z,21.90
2023-03-20T13:46:28.207Z,21.91
2023-03-20T13:49:37.837Z,21.87
2023-03-20T13:52:45.764Z,21.94
2023-03-20T13:56:01.938Z,21.99
2023-03-20T13:59:39.047Z,22.01
2023-03-20T14:02:31.217Z,22.26
2023-03-20T14:05:23.291Z,22.34
2023-03-20T14:08:38.744Z,22.79
2023-03-20T14:11:24.807Z,23.28
2023-03-20T14:14:31.870Z,23.56
2023-03-20T14:17:25.245Z,23.89
2023-03-20T14:20:16.642Z,24.07
2023-03-20T14:23:03.208Z,24.27
2023-03-20T14:25:49.519Z,24.33
2023-03-20T14:28:53.285Z,24.31
2023-03-20T14:31:42.275Z,24.33
2023-03-20T14:34:47.991Z,24.16
2023-03-20T14:37:39.600Z,24.13
2023-03-20T14:40:29.790Z,24.23
2023-03-20T14:43:52.020Z,24.16
2023-03-20T14:47:02.962Z,24.26
2023-03-20T14:49:53.556Z,24.38
2023-03-20T14:53:01.685Z,24.28
2023-03-20T14:55:55.769Z,24.17
2023-03-20T14:59:02.044Z,24.21
2023-03-20T15:01:53.802Z,24.19
2023-03-20T15:04:41.825Z,24.26
2023-03-20T15:07:30.438Z,24.15
2023-03-20T15:10:19.058Z,24.16
2023-03-20T15:13:07.846Z,23.95
2023-03-20T15:16:05.211Z,23.85
2023-03-20T15:18:52.461Z,23.61
2023-03-20T15:21:40.809Z,23.37
2023-03-20T15:24:28.855Z,23.10
2023-03-20T15:27:14.667Z,22.69
2023-03-20T15:30:01.134Z,22.48
2023-03-20T15:32:48.836Z,22.26
2023-03-20T15:35:35.040Z,21.99
2023-03-20T15:38:21.262Z,21.85
2023-03-20T15:41:08.247Z,21.54
2023-03-20T15:43:54.227Z,21.41
2023-03-20T15:46:41.034Z,21.21
2023-03-20T15:49:27.989Z,21.14
2023-03-20T15:52:22.262Z,20.92
2023-03-20T15:55:14.775Z,20.80
2023-03-20T15:58:02.297Z,20.73
2023-03-20T16:00:48.839Z,20.69
2023-03-20T16:03:38.271Z,20.53
2023-03-20T16:06:25.645Z,20.39
2023-03-20T16:09:15.261Z,20.28
2023-03-20T16:12:03.136Z,20.23
2023-03-20T16:14:50.005Z,20.12
2023-03-20T16:17:36.235Z,20.04
2023-03-20T16:20:22.555Z,19.99
2023-03-20T16:23:09.238Z,19.95
2023-03-20T16:26:01.167Z,19.78
2023-03-20T16:28:58.515Z,19.79
2023-03-20T16:32:06.886Z,19.68
2023-03-20T16:34:56.374Z,19.48
2023-03-20T16:37:44.787Z,19.53
2023-03-20T16:40:35.260Z,19.53
2023-03-20T16:43:29.569Z,19.40
2023-03-20T16:46:23.458Z,19.34
2023-03-20T16:49:44.550Z,19.21
2023-03-20T16:52:33.323Z,19.14
2023-03-20T16:55:24.213Z,19.12
2023-03-20T16:58:16.963Z,19.02
2023-03-20T17:01:15.844Z,18.93
2023-03-20T17:04:35.387Z,18.84
2023-03-20T17:07:28.053Z,18.90
2023-03-20T17:10:16.912Z,18.81
2023-03-20T17:13:02.873Z,18.72
2023-03-20T17:15:48.788Z,18.60
2023-03-20T17:18:35.496Z,18.61
2023-03-20T17:21:21.749Z,18.57
2023-03-20T17:24:08.277Z,18.51
2023-03-20T17:26:58.240Z,18.36
2023-03-20T17:29:45.106Z,18.39
2023-03-20T17:32:32.337Z,18.32
2023-03-20T17:35:18.475Z,18.30
2023-03-20T17:38:04.455Z,18.25
2023-03-20T17:40:51.347Z,18.19
2023-03-20T17:43:37.594Z,18.12
2023-03-20T17:46:28.925Z,18.09
2023-03-20T17:49:16.368Z,17.97
2023-03-20T17:52:02.393Z,18.01
2023-03-20T17:54:48.420Z,17.96
2023-03-20T17:57:37.116Z,17.94
2023-03-20T18:00:24.325Z,17.89
2023-03-20T18:03:11.162Z,17.84
2023-03-20T18:05:57.358Z,17.71
2023-03-20T18:08:43.231Z,17.62
2023-03-20T18:11:29.910Z,17.66
2023-03-20T18:14:18.873Z,17.60
2023-03-20T18:17:05.072Z,17.55
2023-03-20T18:19:50.979Z,17.52
2023-03-20T18:22:36.983Z,17.41
2023-03-20T18:25:25.962Z,17.46
2023-03-20T18:28:22.616Z,17.30
2023-03-20T18:31:08.951Z,17.36
2023-03-20T18:33:55.205Z,17.25
2023-03-20T18:36:41.159Z,17.30
2023-03-20T18:39:27.597Z,17.24
2023-03-20T18:42:13.420Z,17.21
2023-03-20T18:44:59.231Z,17.19
2023-03-20T18:47:45.667Z,17.16
2023-03-20T18:50:37.543Z,17.06
2023-03-20T18:53:24.217Z,16.99
2023-03-20T18:56:25.662Z,17.03
2023-03-20T18:59:12.890Z,16.87
2023-03-20T19:01:58.796Z,16.88
2023-03-20T19:04:44.525Z,16.82
2023-03-20T19:07:30.362Z,16.79
2023-03-20T19:10:25.024Z,16.70
2023-03-20T19:13:17.269Z,16.70
2023-03-20T19:16:03.340Z,16.52
2023-03-20T19:18:52.553Z,16.59
2023-03-20T19:21:38.759Z,16.54
2023-03-20T19:24:25.155Z,16.54
2023-03-20T19:27:17.443Z,16.32
2023-03-20T19:30:05.947Z,16.44
2023-03-20T19:32:52.105Z,16.31
2023-03-20T19:35:58.798Z,16.40
2023-03-20T19:38:43.826Z,16.31
2023-03-20T19:41:32.175Z,16.26
2023-03-20T19:44:19.121Z,16.18
2023-03-20T19:47:05.229Z,16.15
2023-03-20T19:49:51.413Z,16.11
2023-03-20T19:52:37.242Z,16.04
2023-03-20T19:55:25.054Z,16.01
2023-03-20T19:58:11.100Z,15.99
2023-03-20T20:01:11.645Z,15.93
2023-03-20T20:04:00.252Z,15.72
2023-03-20T20:06:47.353Z,15.77
2023-03-20T20:09:33.791Z,15.79
2023-03-20T20:12:19.561Z,15.71
2023-03-20T20:15:07.878Z,15.68
2023-03-20T20:17:54.218Z,15.62
2023-03-20T20:21:24.546Z,15.59
2023-03-20T20:23:48.524Z,15.56
2023-03-20T20:26:39.013Z,15.48
2023-03-20T20:29:27.136Z,15.36
2023-03-20T20:32:13.275Z,15.33
2023-03-20T20:35:40.610Z,15.27
2023-03-20T20:41:12.239Z,15.15
2023-03-20T20:44:15.761Z,15.14
2023-03-20T20:47:02.304Z,15.09
2023-03-20T20:49:48.169Z,15.02
2023-03-20T20:52:35.800Z,14.93
2023-03-20T20:55:24.147Z,14.91
2023-03-20T20:58:11.462Z,14.86
2023-03-20T21:01:01.330Z,14.74
2023-03-20T21:03:47.340Z,14.72
2023-03-20T21:07:03.775Z,14.74
2023-03-20T21:09:40.454Z,14.68
2023-03-20T21:12:36.239Z,14.63
2023-03-20T21:15:26.698Z,14.57
2023-03-20T21:18:12.512Z,14.52
2023-03-20T21:21:10.174Z,14.44
2023-03-20T21:23:56.203Z,14.40
2023-03-20T21:26:42.044Z,14.33
2023-03-20T21:29:31.557Z,14.29
2023-03-20T21:32:20.797Z,14.23
2023-03-20T21:35:08.982Z,14.16
2023-03-20T21:41:08.075Z,14.07
2023-03-20T21:43:54.104Z,14.03
2023-03-20T21:47:09.701Z,13.98
2023-03-20T21:53:28.735Z,13.81
2023-03-20T21:56:40.230Z,13.82
2023-03-20T22:02:23.559Z,13.72
2023-03-20T22:21:22.333Z,13.11
2023-03-20T22:37:01.564Z,12.80
2023-03-20T22:45:37.993Z,12.83
2023-03-20T22:48:28.852Z,12.72
2023-03-20T22:51:14.534Z,12.78
2023-03-20T22:54:00.455Z,12.70
2023-03-20T22:56:46.494Z,12.72
2023-03-20T22:59:32.288Z,12.70
2023-03-20T23:02:18.129Z,12.61
2023-03-20T23:05:04.239Z,12.45
2023-03-20T23:07:50.280Z,12.59
2023-03-20T23:10:38.222Z,12.61
2023-03-20T23:13:24.467Z,12.54
2023-03-20T23:16:10.618Z,12.53
2023-03-20T23:18:56.964Z,12.41
2023-03-20T23:21:43.197Z,12.48
2023-03-20T23:24:29.309Z,12.48
2023-03-20T23:27:15.513Z,12.50
2023-03-20T23:30:01.602Z,12.49
2023-03-20T23:32:47.499Z,12.45
2023-03-20T23:35:33.535Z,12.46
2023-03-20T23:38:19.439Z,12.44
2023-03-20T23:41:06.000Z,12.37
2023-03-20T23:43:52.649Z,12.43
2023-03-20T23:46:38.523Z,12.37
2023-03-20T23:49:24.634Z,12.36
2023-03-20T23:52:10.381Z,12.32
2023-03-20T23:54:56.296Z,12.39
2023-03-20T23:57:42.387Z,12.40
